createdAt,value
2023-04-15T06:07:54.783Z,10.32
2023-04-15T06:11:04.831Z,9.82
2023-04-15T06:14:07.746Z,11.57
2023-04-15T06:20:42.870Z,9.50
2023-04-15T06:24:25.376Z,8.45
2023-04-15T06:27:18.293Z,9.73
2023-04-15T06:33:19.552Z,14.32
2023-04-15T06:36:16.420Z,9.77
2023-04-15T06:42:23.798Z,18.15
2023-04-15T06:45:31.059Z,12.40
2023-04-15T06:48:23.491Z,10.80
2023-04-15T06:51:17.768Z,12.65
2023-04-15T06:54:10.692Z,11.20
2023-04-15T06:57:09.884Z,9.20
2023-04-15T07:00:00.990Z,7.50
2023-04-15T07:02:48.740Z,9.25
2023-04-15T07:05:40.296Z,8.77
2023-04-15T07:08:31.636Z,7.25
2023-04-15T07:11:25.732Z,6.65
2023-04-15T07:14:19.889Z,19.80
2023-04-15T07:17:07.878Z,6.55
2023-04-15T07:19:55.339Z,10.40
2023-04-15T07:22:42.588Z,8.00
2023-04-15T07:25:32.554Z,10.02
2023-04-15T07:28:22.322Z,7.43
2023-04-15T07:31:09.754Z,10.68
2023-04-15T07:33:57.435Z,8.55
2023-04-15T07:36:45.008Z,8.77
2023-04-15T07:39:32.910Z,10.63
2023-04-15T07:42:20.108Z,9.18
2023-04-15T07:45:10.360Z,10.77
2023-04-15T07:47:58.255Z,12.43
2023-04-15T07:50:46.384Z,9.80
2023-04-15T07:53:57.232Z,9.20
2023-04-15T07:56:49.981Z,6.97
2023-04-15T08:03:16.168Z,6.25
2023-04-15T08:09:18.879Z,6.32
2023-04-15T08:12:17.670Z,8.98
2023-04-15T08:15:05.989Z,7.50
2023-04-15T08:18:04.653Z,6.97
2023-04-15T08:20:56.969Z,6.95
2023-04-15T08:23:51.079Z,7.28
2023-04-15T08:26:38.623Z,6.93
2023-04-15T08:29:26.017Z,5.38
2023-04-15T08:32:19.951Z,8.32
2023-04-15T08:36:14.657Z,7.00
2023-04-15T08:39:14.439Z,5.38
2023-04-15T08:42:37.795Z,6.10
2023-04-15T08:49:18.022Z,5.68
2023-04-15T08:52:11.786Z,5.93
2023-04-15T08:55:14.086Z,4.25
2023-04-15T08:58:06.262Z,6.70
2023-04-15T09:00:57.343Z,4.82
2023-04-15T09:07:29.539Z,4.90
2023-04-15T09:10:55.029Z,5.50
2023-04-15T09:13:45.678Z,3.80
2023-04-15T09:17:42.109Z,3.97
2023-04-15T09:34:08.151Z,5.15
2023-04-15T09:37:09.247Z,5.82
2023-04-15T09:39:56.634Z,5.70
2023-04-15T09:42:57.026Z,4.85
2023-04-15T09:46:05.202Z,4.35
2023-04-15T09:49:15.232Z,2.75
2023-04-15T09:52:05.745Z,4.22
2023-04-15T09:55:12.876Z,3.15
2023-04-15T10:01:33.035Z,5.18
2023-04-15T10:05:31.846Z,3.78
2023-04-15T10:12:17.379Z,3.75
2023-04-15T10:15:32.512Z,3.13
2023-04-15T10:27:09.826Z,2.67
2023-04-15T10:30:04.022Z,3.92
2023-04-15T10:32:51.780Z,2.53
2023-04-15T10:35:43.231Z,2.70
2023-04-15T10:38:54.052Z,9.38
2023-04-15T10:42:16.903Z,3.03
2023-04-15T10:45:16.216Z,2.65
2023-04-15T10:49:47.105Z,3.63
2023-04-15T10:51:32.439Z,4.22
2023-04-15T10:55:16.328Z,4.82
2023-04-15T11:07:05.302Z,7.38
2023-04-15T11:09:52.612Z,4.40
2023-04-15T11:12:42.235Z,5.85
2023-04-15T11:15:42.582Z,3.83
2023-04-15T11:18:33.930Z,6.82
2023-04-15T11:25:09.218Z,6.03
2023-04-15T11:28:25.532Z,6.78
2023-04-15T11:32:12.836Z,3.92
2023-04-15T11:35:00.593Z,4.68
2023-04-15T11:41:04.446Z,3.88
2023-04-15T11:43:57.244Z,7.53
2023-04-15T11:46:50.423Z,5.72
2023-04-15T11:49:42.023Z,8.18
2023-04-15T11:52:30.078Z,9.35
2023-04-15T11:55:34.381Z,9.80
2023-04-15T11:58:29.422Z,5.40
2023-04-15T12:01:49.099Z,5.75
2023-04-15T12:05:16.396Z,6.30
2023-04-15T12:08:03.805Z,7.45
2023-04-15T12:10:53.819Z,6.60
2023-04-15T12:13:47.021Z,5.28
2023-04-15T12:16:48.340Z,10.57
2023-04-15T12:19:49.089Z,4.78
2023-04-15T12:22:43.069Z,6.05
2023-04-15T12:25:40.459Z,5.90
2023-04-15T12:28:33.683Z,7.63
2023-04-15T12:31:21.831Z,4.78
2023-04-15T12:34:15.962Z,6.15
2023-04-15T12:37:05.757Z,8.30
2023-04-15T12:39:54.567Z,5.93
2023-04-15T12:42:46.664Z,6.57
2023-04-15T12:45:33.897Z,7.70
2023-04-15T12:48:23.901Z,6.40
2023-04-15T12:51:12.350Z,7.18
2023-04-15T12:54:02.773Z,5.82
2023-04-15T12:56:54.495Z,7.95
2023-04-15T12:59:46.970Z,8.27
2023-04-15T13:05:35.502Z,9.45
2023-04-15T13:08:27.117Z,5.75
2023-04-15T13:11:14.360Z,5.47
2023-04-15T13:17:14.820Z,7.78
2023-04-15T13:20:02.252Z,6.35
2023-04-15T13:22:52.450Z,6.07
2023-04-15T13:26:28.522Z,5.18
2023-04-15T13:31:53.659Z,5.05
2023-04-15T13:34:44.247Z,7.57
2023-04-15T13:40:42.341Z,6.30
2023-04-15T13:43:34.796Z,4.95
2023-04-15T13:46:22.566Z,5.30
2023-04-15T13:49:16.683Z,9.35
2023-04-15T13:52:06.574Z,4.63
2023-04-15T13:55:19.569Z,6.25
2023-04-15T13:58:15.980Z,8.18
2023-04-15T14:04:19.282Z,7.82
2023-04-15T14:07:08.092Z,6.35
2023-04-15T14:09:55.606Z,4.22
2023-04-15T14:12:43.482Z,9.88
2023-04-15T14:15:54.680Z,5.05
2023-04-15T14:18:45.013Z,6.40
2023-04-15T14:21:33.221Z,5.68
2023-04-15T14:24:26.499Z,7.32
2023-04-15T14:27:17.437Z,3.85
2023-04-15T14:30:22.850Z,4.68
2023-04-15T14:33:10.518Z,3.72
2023-04-15T14:35:58.337Z,5.82
2023-04-15T14:38:47.470Z,2.80
2023-04-15T14:41:35.896Z,2.60
2023-04-15T14:44:25.186Z,3.08
2023-04-15T14:47:12.830Z,2.78
2023-04-15T14:50:03.849Z,2.92
2023-04-15T14:52:51.097Z,3.92
2023-04-15T14:55:41.301Z,2.55
2023-04-15T14:58:29.354Z,4.25
2023-04-15T15:01:19.310Z,5.32
2023-04-15T15:04:09.757Z,3.97
2023-04-15T15:06:57.009Z,3.60
2023-04-15T15:09:46.249Z,5.28
2023-04-15T15:12:34.754Z,4.82
2023-04-15T15:18:12.856Z,5.90
2023-04-15T15:21:04.221Z,2.60
2023-04-15T15:23:53.380Z,4.03
2023-04-15T15:26:40.921Z,7.05
2023-04-15T15:29:38.591Z,6.85
2023-04-15T15:32:25.946Z,4.55
2023-04-15T15:35:18.492Z,9.10
2023-04-15T15:38:06.596Z,4.07
2023-04-15T15:40:54.359Z,5.68
2023-04-15T15:43:41.853Z,5.07
2023-04-15T15:46:31.899Z,7.50
2023-04-15T15:49:20.047Z,5.30
2023-04-15T15:52:09.885Z,3.78
2023-04-15T15:54:59.781Z,4.97
2023-04-15T15:57:47.173Z,3.90
2023-04-15T16:00:34.856Z,6.97
2023-04-15T16:03:26.543Z,6.38
2023-04-15T16:06:34.405Z,4.47
2023-04-15T16:10:08.931Z,4.78
2023-04-15T16:12:56.855Z,4.47
2023-04-15T16:15:47.184Z,4.53
2023-04-15T16:18:35.359Z,4.13
2023-04-15T16:21:25.388Z,3.63
2023-04-15T16:24:16.061Z,3.83
2023-04-15T16:27:03.525Z,4.35
2023-04-15T16:29:51.286Z,3.25
2023-04-15T16:32:41.519Z,2.65
2023-04-15T16:35:38.680Z,2.15
2023-04-15T16:38:25.970Z,3.38
2023-04-15T16:41:13.254Z,2.78
2023-04-15T16:44:02.050Z,3.47
2023-04-15T16:46:54.935Z,3.05
2023-04-15T16:52:52.180Z,6.07
2023-04-15T16:55:41.093Z,4.05
2023-04-15T16:58:29.045Z,4.80
2023-04-15T17:01:16.476Z,4.07
2023-04-15T17:04:03.958Z,4.50
2023-04-15T17:09:58.265Z,3.90
2023-04-15T17:12:46.104Z,2.60
2023-04-15T17:15:37.974Z,3.45
2023-04-15T17:18:25.378Z,9.70
2023-04-15T17:21:13.073Z,3.83
2023-04-15T17:24:00.844Z,4.03
2023-04-15T17:26:49.092Z,4.10
2023-04-15T17:29:39.377Z,5.22
2023-04-15T17:32:32.125Z,3.83
2023-04-15T17:38:10.130Z,4.35
2023-04-15T17:44:16.652Z,8.48
2023-04-15T17:47:08.296Z,4.63
2023-04-15T17:50:03.794Z,6.43
2023-04-15T17:52:51.762Z,3.53
2023-04-15T17:55:44.690Z,5.70
2023-04-15T18:06:17.770Z,6.13
2023-04-15T18:09:05.569Z,6.03
2023-04-15T18:12:18.766Z,6.07
2023-04-15T18:19:36.786Z,7.32
2023-04-15T18:23:00.856Z,6.75
2023-04-15T18:34:30.483Z,8.23
2023-04-15T18:37:41.717Z,7.38
2023-04-15T18:40:38.132Z,7.72
2023-04-15T18:43:37.027Z,8.90
2023-04-15T18:46:27.351Z,8.48
2023-04-15T18:50:06.565Z,7.55
2023-04-15T19:00:46.987Z,11.68
2023-04-15T19:22:12.785Z,13.20
2023-04-15T19:26:03.898Z,15.25
2023-04-15T19:28:54.112Z,13.85
2023-04-15T19:33:01.389Z,14.23
2023-04-15T19:35:54.391Z,19.40
2023-04-15T19:41:47.594Z,21.17
2023-04-15T19:44:46.416Z,19.17
2023-04-15T19:48:27.274Z,22.25
2023-04-15T19:51:33.966Z,23.75
2023-04-15T19:55:00.132Z,23.75
2023-04-15T20:12:52.376Z,24.27
2023-04-15T20:15:43.233Z,23.83
2023-04-15T20:18:31.789Z,25.75
2023-04-15T20:22:09.729Z,22.58
2023-04-15T20:32:29.040Z,22.60
2023-04-15T20:35:19.902Z,23.55
2023-04-15T20:38:11.976Z,22.92
2023-04-15T20:45:47.654Z,23.35
2023-04-15T20:52:11.997Z,26.88
2023-04-15T20:55:17.439Z,25.48
2023-04-15T20:58:27.583Z,28.33
2023-04-15T21:02:16.045Z,25.48
2023-04-15T21:05:12.781Z,27.02
2023-04-15T21:08:00.395Z,30.42
2023-04-15T21:15:15.928Z,29.33
2023-04-15T21:23:30.447Z,26.23
2023-04-15T21:26:18.413Z,33.25
2023-04-15T21:29:08.567Z,28.08
2023-04-15T21:32:16.215Z,31.13
2023-04-15T21:35:03.965Z,33.22
2023-04-15T21:38:16.591Z,31.00
2023-04-15T21:41:15.300Z,35.47
2023-04-15T21:44:04.714Z,29.50
2023-04-15T21:48:00.438Z,29.90
2023-04-15T21:51:08.555Z,33.10
2023-04-15T21:53:56.114Z,32.00
2023-04-15T21:57:10.990Z,31.35
2023-04-15T22:00:11.114Z,32.47
2023-04-15T22:02:58.583Z,34.63
2023-04-15T22:06:38.870Z,33.72
2023-04-15T22:09:26.455Z,34.00
2023-04-15T22:12:15.478Z,30.77
2023-04-15T22:15:03.225Z,34.78
2023-04-15T22:18:01.885Z,32.90
2023-04-15T22:21:02.923Z,35.90
2023-04-15T22:24:38.566Z,37.35
2023-04-15T22:27:00.359Z,34.78
2023-04-15T22:29:54.321Z,37.70
2023-04-15T22:32:46.878Z,34.15
2023-04-15T22:35:45.039Z,37.80
2023-04-15T22:38:44.150Z,35.55
2023-04-15T22:41:33.351Z,35.75
2023-04-15T22:44:20.661Z,39.15
2023-04-15T22:50:50.145Z,35.15
2023-04-15T22:53:37.729Z,36.05
2023-04-15T22:56:25.735Z,34.55
2023-04-15T22:59:14.285Z,31.17
2023-04-15T23:02:10.247Z,32.03
2023-04-15T23:05:14.356Z,35.17
2023-04-15T23:08:12.339Z,37.70
2023-04-15T23:11:06.702Z,32.03
2023-04-15T23:13:58.440Z,39.28
2023-04-15T23:16:48.816Z,39.20
2023-04-15T23:19:41.964Z,33.83
2023-04-15T23:22:37.728Z,34.13
2023-04-15T23:28:28.889Z,35.47
2023-04-15T23:31:46.880Z,34.22
2023-04-15T23:34:26.991Z,36.95
2023-04-15T23:37:17.731Z,38.10
2023-04-15T23:40:13.200Z,35.03
2023-04-15T23:43:00.313Z,35.05
2023-04-15T23:45:48.006Z,35.70
2023-04-15T23:48:38.440Z,40.00
2023-04-15T23:51:34.211Z,39.72
2023-04-15T23:54:23.097Z,33.72
2023-04-15T23:57:11.460Z,39.90
